Time;durP1;ratioP1;P1;durP2;ratioP2;P2;SDS_P1;SDS_P2;PMS_P1;PMS_P2;Temp;Humidity;BMP_temperature;BMP_pressure;BME280_temperature;BME280_humidity;BME280_pressure;Samples;Min_cycle;Max_cycle;Signal;HPM_P1;HPM_P2
2022/05/09 00:01:42;;;;;;;6.75;4.22;;;;;;;;;;5020561;28;20053;-73
2022/05/09 00:04:09;;;;;;;5.80;3.72;;;;;;;;;;5015340;28;20145;-75
2022/05/09 00:06:35;;;;;;;3.88;3.42;;;;;;;;;;5015680;28;20507;-74
2022/05/09 00:09:01;;;;;;;5.57;3.45;;;;;;;;;;5018371;28;20121;-75
2022/05/09 00:11:27;;;;;;;3.60;3.30;;;;;;;;;;5014993;28;20057;-73
2022/05/09 00:13:53;;;;;;;4.22;3.50;;;;;;;;;;5018879;28;20038;-77
2022/05/09 00:16:20;;;;;;;4.88;3.63;;;;;;;;;;5010499;28;20117;-73
2022/05/09 00:18:47;;;;;;;4.28;3.20;;;;;;;;;;5014539;28;20034;-73
2022/05/09 00:21:13;;;;;;;6.22;3.08;;;;;;;;;;5013104;28;20289;-75
2022/05/09 00:23:40;;;;;;;4.22;2.97;;;;;;;;;;5005503;28;20122;-73
2022/05/09 00:26:06;;;;;;;5.28;3.13;;;;;;;;;;5017234;28;20030;-73
2022/05/09 00:28:32;;;;;;;3.50;2.80;;;;;;;;;;5011493;28;20121;-73
2022/05/09 00:30:58;;;;;;;6.40;3.30;;;;;;;;;;5012528;28;20294;-74
2022/05/09 00:33:24;;;;;;;4.40;3.53;;;;;;;;;;5011464;28;20052;-74
2022/05/09 00:35:50;;;;;;;3.88;3.17;;;;;;;;;;5008942;28;20368;-74
2022/05/09 00:38:17;;;;;;;5.53;3.47;;;;;;;;;;5018453;28;20465;-75
2022/05/09 00:41:28;;;;;;;5.97;3.45;;;;;;;;;;5015176;28;20052;-74
2022/05/09 00:43:30;;;;;;;4.50;3.70;;;;;;;;;;5011878;28;20117;-75
2022/05/09 00:45:56;;;;;;;5.43;4.25;;;;;;;;;;5011251;28;20034;-73
2022/05/09 00:48:22;;;;;;;6.95;3.45;;;;;;;;;;5017729;28;20030;-75
2022/05/09 00:50:49;;;;;;;4.47;3.58;;;;;;;;;;5010948;28;20142;-73
2022/05/09 00:53:15;;;;;;;4.75;3.95;;;;;;;;;;5014458;28;20061;-73
2022/05/09 00:55:42;;;;;;;6.88;4.80;;;;;;;;;;5015304;28;20022;-73
2022/05/09 00:58:35;;;;;;;5.60;3.55;;;;;;;;;;5017540;28;20018;-75
2022/05/09 01:01:03;;;;;;;5.35;4.32;;;;;;;;;;5015468;28;20069;-72
2022/05/09 01:03:43;;;;;;;5.82;3.53;;;;;;;;;;5019773;28;20018;-74
2022/05/09 01:06:09;;;;;;;6.10;3.88;;;;;;;;;;5017341;28;20086;-76
2022/05/09 01:08:36;;;;;;;5.35;4.03;;;;;;;;;;5017160;28;20025;-74
2022/05/09 01:11:09;;;;;;;5.00;3.70;;;;;;;;;;5022939;28;20375;-73
2022/05/09 01:13:36;;;;;;;5.70;3.50;;;;;;;;;;5021762;28;20293;-74
2022/05/09 01:16:04;;;;;;;8.57;4.97;;;;;;;;;;5021446;28;20042;-75
2022/05/09 01:18:30;;;;;;;6.47;4.22;;;;;;;;;;5007424;28;20033;-73
2022/05/09 01:20:56;;;;;;;5.90;4.05;;;;;;;;;;5015663;28;20464;-73
2022/05/09 01:23:23;;;;;;;5.28;3.80;;;;;;;;;;5018266;28;20037;-73
2022/05/09 01:25:49;;;;;;;7.10;4.15;;;;;;;;;;5016211;28;20038;-74
2022/05/09 01:28:16;;;;;;;7.13;4.40;;;;;;;;;;5024105;28;20815;-74
2022/05/09 01:30:57;;;;;;;7.90;5.82;;;;;;;;;;5023314;28;20050;-75
2022/05/09 01:33:24;;;;;;;8.35;4.43;;;;;;;;;;5011700;28;20057;-73
2022/05/09 01:35:55;;;;;;;6.10;4.75;;;;;;;;;;5010408;28;20046;-73
2022/05/09 01:38:35;;;;;;;6.95;5.00;;;;;;;;;;5020176;28;20030;-73
2022/05/09 01:41:01;;;;;;;8.27;5.15;;;;;;;;;;5015234;28;20041;-73
2022/05/09 01:43:28;;;;;;;10.65;4.80;;;;;;;;;;5017553;28;20029;-73
2022/05/09 01:45:54;;;;;;;6.75;4.70;;;;;;;;;;5025101;28;20060;-74
2022/05/09 01:51:05;;;;;;;9.70;5.27;;;;;;;;;;5013408;28;20117;-74
2022/05/09 01:53:32;;;;;;;6.00;5.13;;;;;;;;;;5015863;28;20022;-73
2022/05/09 01:55:58;;;;;;;9.50;4.55;;;;;;;;;;5017531;28;20022;-73
2022/05/09 01:58:24;;;;;;;10.05;4.68;;;;;;;;;;5019182;28;20030;-74
2022/05/09 02:00:50;;;;;;;7.75;5.20;;;;;;;;;;5010820;28;20030;-74
2022/05/09 02:03:19;;;;;;;9.05;4.60;;;;;;;;;;5022285;28;20034;-75
2022/05/09 02:05:45;;;;;;;4.72;3.90;;;;;;;;;;5015873;28;20029;-73
2022/05/09 02:08:12;;;;;;;6.90;4.53;;;;;;;;;;5018615;28;20174;-74
2022/05/09 02:10:39;;;;;;;6.82;3.97;;;;;;;;;;5019276;28;20050;-75
2022/05/09 02:13:05;;;;;;;5.50;4.20;;;;;;;;;;5016900;28;20049;-74
2022/05/09 02:15:31;;;;;;;7.63;4.88;;;;;;;;;;5018538;28;20061;-73
2022/05/09 02:17:58;;;;;;;8.15;4.25;;;;;;;;;;5018112;28;20046;-73
2022/05/09 02:20:24;;;;;;;7.50;5.13;;;;;;;;;;5015442;28;20060;-75
2022/05/09 02:22:50;;;;;;;5.18;4.00;;;;;;;;;;5014720;28;20037;-75
2022/05/09 02:25:29;;;;;;;8.10;4.43;;;;;;;;;;5016874;28;20030;-73
2022/05/09 02:27:59;;;;;;;10.73;4.45;;;;;;;;;;5021198;28;20022;-73
2022/05/09 02:30:25;;;;;;;8.60;4.82;;;;;;;;;;5014104;28;20030;-71
2022/05/09 02:32:52;;;;;;;8.95;4.82;;;;;;;;;;5015632;28;20254;-72
2022/05/09 02:35:19;;;;;;;9.90;5.13;;;;;;;;;;5013795;28;20472;-74
2022/05/09 02:37:45;;;;;;;6.38;4.45;;;;;;;;;;5016808;28;20052;-73
2022/05/09 02:40:11;;;;;;;8.32;5.03;;;;;;;;;;5013258;28;20052;-74
2022/05/09 02:42:37;;;;;;;12.68;4.90;;;;;;;;;;5013269;28;20038;-74
2022/05/09 02:45:04;;;;;;;10.20;4.88;;;;;;;;;;5016492;28;20034;-74
2022/05/09 02:47:30;;;;;;;11.75;5.78;;;;;;;;;;5008464;28;20034;-73
2022/05/09 02:49:56;;;;;;;11.75;5.22;;;;;;;;;;5017350;28;20049;-71
2022/05/09 02:52:22;;;;;;;7.90;5.40;;;;;;;;;;5016447;28;20060;-72
2022/05/09 02:54:48;;;;;;;12.10;5.20;;;;;;;;;;5017956;28;20035;-72
2022/05/09 02:57:14;;;;;;;8.77;5.55;;;;;;;;;;5010383;28;20026;-71
2022/05/09 02:59:40;;;;;;;7.75;4.95;;;;;;;;;;5011177;28;20038;-75
2022/05/09 03:02:08;;;;;;;9.02;5.45;;;;;;;;;;5008892;28;20048;-74
2022/05/09 03:04:40;;;;;;;8.95;4.80;;;;;;;;;;5013459;28;20057;-72
2022/05/09 03:07:12;;;;;;;7.38;5.22;;;;;;;;;;5009397;28;20053;-73
2022/05/09 03:09:40;;;;;;;15.38;5.32;;;;;;;;;;5013364;28;20042;-73
2022/05/09 03:12:07;;;;;;;7.30;4.93;;;;;;;;;;5022112;28;20037;-74
2022/05/09 03:14:34;;;;;;;9.55;4.68;;;;;;;;;;5022585;28;20190;-73
2022/05/09 03:17:00;;;;;;;6.38;4.20;;;;;;;;;;5019925;28;20054;-73
2022/05/09 03:19:26;;;;;;;8.98;4.65;;;;;;;;;;5022501;28;20044;-73
2022/05/09 03:21:53;;;;;;;8.30;3.97;;;;;;;;;;5017071;28;20038;-72
2022/05/09 03:24:19;;;;;;;8.15;4.18;;;;;;;;;;5014952;28;20022;-74
2022/05/09 03:26:46;;;;;;;6.93;4.28;;;;;;;;;;5015293;28;20116;-75
2022/05/09 03:29:13;;;;;;;8.07;4.50;;;;;;;;;;5019958;28;20054;-72
2022/05/09 03:31:39;;;;;;;7.32;4.15;;;;;;;;;;5019300;28;20033;-72
2022/05/09 03:34:05;;;;;;;6.40;4.00;;;;;;;;;;5018559;28;20048;-73
2022/05/09 03:36:31;;;;;;;8.27;4.45;;;;;;;;;;5017701;28;20030;-75
2022/05/09 03:38:57;;;;;;;7.00;4.78;;;;;;;;;;5018273;28;20613;-73
2022/05/09 03:41:24;;;;;;;5.55;3.80;;;;;;;;;;5015375;28;20026;-73
2022/05/09 03:43:50;;;;;;;12.15;6.25;;;;;;;;;;5014795;28;20018;-73
2022/05/09 03:46:16;;;;;;;8.40;4.25;;;;;;;;;;5013184;28;20034;-73
2022/05/09 03:48:42;;;;;;;7.05;4.70;;;;;;;;;;5014055;28;20033;-73
2022/05/09 03:51:08;;;;;;;5.30;4.22;;;;;;;;;;5012082;28;20022;-75
2022/05/09 03:53:34;;;;;;;8.32;4.68;;;;;;;;;;5017218;28;20044;-72
2022/05/09 03:56:00;;;;;;;6.00;4.38;;;;;;;;;;5017867;28;20029;-73
2022/05/09 03:58:26;;;;;;;8.68;4.25;;;;;;;;;;5020045;28;20034;-72
2022/05/09 04:00:53;;;;;;;6.75;4.03;;;;;;;;;;5018805;28;20044;-73
2022/05/09 04:03:20;;;;;;;7.43;5.05;;;;;;;;;;5011680;28;20507;-73
2022/05/09 04:05:46;;;;;;;7.43;4.45;;;;;;;;;;5012453;28;20038;-72
2022/05/09 04:08:16;;;;;;;7.68;4.70;;;;;;;;;;5015094;28;20413;-75
2022/05/09 04:10:42;;;;;;;6.55;4.10;;;;;;;;;;5009826;28;20026;-73
2022/05/09 04:13:09;;;;;;;8.70;5.03;;;;;;;;;;5010453;28;20029;-73
2022/05/09 04:18:21;;;;;;;8.23;4.68;;;;;;;;;;5016695;28;20110;-73
2022/05/09 04:20:48;;;;;;;9.00;4.30;;;;;;;;;;5013496;28;20111;-72
2022/05/09 04:23:15;;;;;;;5.22;3.95;;;;;;;;;;5014547;28;20033;-72
2022/05/09 04:25:41;;;;;;;12.48;4.50;;;;;;;;;;5014965;28;20477;-72
2022/05/09 04:28:09;;;;;;;7.63;4.63;;;;;;;;;;5007751;28;20141;-73
2022/05/09 04:30:36;;;;;;;8.20;5.00;;;;;;;;;;5015018;28;20045;-71
2022/05/09 04:33:04;;;;;;;6.57;4.80;;;;;;;;;;5022746;28;20032;-73
2022/05/09 04:35:30;;;;;;;7.70;4.80;;;;;;;;;;5014460;28;20044;-72
2022/05/09 04:37:57;;;;;;;9.60;5.63;;;;;;;;;;5014961;28;20119;-74
2022/05/09 04:40:24;;;;;;;8.52;5.50;;;;;;;;;;5021071;28;20041;-73
2022/05/09 04:42:51;;;;;;;9.73;5.25;;;;;;;;;;5025271;28;20058;-73
2022/05/09 04:45:18;;;;;;;9.13;6.10;;;;;;;;;;5023776;28;20038;-73
2022/05/09 04:47:45;;;;;;;8.27;5.60;;;;;;;;;;5012271;28;20026;-72
2022/05/09 04:50:12;;;;;;;11.48;4.88;;;;;;;;;;5016398;28;20053;-72
2022/05/09 04:52:38;;;;;;;8.95;5.05;;;;;;;;;;5022745;28;20044;-72
2022/05/09 04:55:05;;;;;;;9.27;5.32;;;;;;;;;;5024895;28;20045;-75
2022/05/09 04:57:31;;;;;;;10.77;4.95;;;;;;;;;;5008355;28;20194;-73
2022/05/09 04:59:58;;;;;;;7.70;4.88;;;;;;;;;;5012810;28;20120;-74
2022/05/09 05:02:24;;;;;;;6.70;4.57;;;;;;;;;;5009113;28;20057;-73
2022/05/09 05:04:50;;;;;;;8.98;5.22;;;;;;;;;;5014301;28;20045;-74
2022/05/09 05:07:16;;;;;;;10.43;4.68;;;;;;;;;;5011040;28;20049;-73
2022/05/09 05:09:42;;;;;;;10.70;5.07;;;;;;;;;;5011804;28;20037;-73
2022/05/09 05:12:09;;;;;;;10.02;5.93;;;;;;;;;;5017702;28;20104;-73
2022/05/09 05:14:35;;;;;;;11.02;5.20;;;;;;;;;;5010540;28;20500;-73
2022/05/09 05:17:01;;;;;;;7.30;5.07;;;;;;;;;;5014142;28;20043;-73
2022/05/09 05:19:31;;;;;;;6.45;5.00;;;;;;;;;;5017691;28;20018;-72
2022/05/09 05:21:59;;;;;;;12.73;5.47;;;;;;;;;;5012796;28;20034;-73
2022/05/09 05:24:25;;;;;;;10.13;4.72;;;;;;;;;;5019478;28;20026;-73
2022/05/09 05:26:52;;;;;;;8.93;5.47;;;;;;;;;;5010070;28;20030;-73
2022/05/09 05:29:18;;;;;;;5.50;4.65;;;;;;;;;;5015892;28;20033;-75
2022/05/09 05:31:45;;;;;;;7.78;4.85;;;;;;;;;;5019010;28;20416;-72
2022/05/09 05:34:11;;;;;;;7.88;4.40;;;;;;;;;;5021973;28;20034;-73
2022/05/09 05:36:37;;;;;;;7.57;4.68;;;;;;;;;;5016994;28;20023;-75
2022/05/09 05:39:03;;;;;;;11.05;5.30;;;;;;;;;;5016427;28;20056;-74
2022/05/09 05:41:32;;;;;;;10.73;5.60;;;;;;;;;;5023668;28;20065;-73
2022/05/09 05:43:58;;;;;;;5.88;5.25;;;;;;;;;;5015872;28;20365;-73
2022/05/09 05:46:24;;;;;;;10.98;4.30;;;;;;;;;;5008615;28;20030;-74
2022/05/09 05:48:51;;;;;;;7.28;4.93;;;;;;;;;;5014543;28;20055;-72
2022/05/09 05:51:18;;;;;;;7.20;5.28;;;;;;;;;;5012907;28;20060;-74
2022/05/09 05:53:47;;;;;;;9.43;5.05;;;;;;;;;;5014976;28;20018;-74
2022/05/09 05:56:13;;;;;;;7.70;4.47;;;;;;;;;;5017684;28;20026;-74
2022/05/09 05:58:39;;;;;;;8.65;4.68;;;;;;;;;;5013790;28;20029;-74
2022/05/09 06:01:05;;;;;;;9.20;5.10;;;;;;;;;;5019821;28;20034;-72
2022/05/09 06:03:31;;;;;;;10.25;5.60;;;;;;;;;;5015008;28;20564;-74
2022/05/09 06:05:58;;;;;;;9.00;5.13;;;;;;;;;;5015326;28;20045;-73
2022/05/09 06:08:24;;;;;;;11.13;6.13;;;;;;;;;;5014184;28;20037;-74
2022/05/09 06:10:50;;;;;;;8.25;5.35;;;;;;;;;;5017228;28;20025;-75
2022/05/09 06:13:16;;;;;;;12.73;6.10;;;;;;;;;;5011947;28;20181;-74
2022/05/09 06:15:42;;;;;;;7.82;5.43;;;;;;;;;;5018255;28;20040;-72
2022/05/09 06:18:12;;;;;;;13.75;5.80;;;;;;;;;;5013152;28;20049;-74
2022/05/09 06:20:39;;;;;;;9.30;5.32;;;;;;;;;;5012414;28;20029;-75
2022/05/09 06:23:06;;;;;;;12.73;6.07;;;;;;;;;;5016939;28;20057;-73
2022/05/09 06:25:36;;;;;;;7.18;5.15;;;;;;;;;;5019012;28;20072;-76
2022/05/09 06:28:03;;;;;;;9.32;5.32;;;;;;;;;;5026258;28;20392;-73
2022/05/09 06:30:30;;;;;;;8.50;5.30;;;;;;;;;;5022958;28;20082;-72
2022/05/09 06:32:57;;;;;;;7.82;5.03;;;;;;;;;;5010338;28;20038;-72
2022/05/09 06:35:24;;;;;;;12.55;5.70;;;;;;;;;;5014631;28;20026;-73
2022/05/09 06:38:01;;;;;;;11.30;6.32;;;;;;;;;;5016308;28;20018;-74
2022/05/09 06:40:29;;;;;;;8.20;5.10;;;;;;;;;;5018985;28;20034;-75
2022/05/09 06:42:56;;;;;;;10.38;5.13;;;;;;;;;;5016871;28;20034;-74
2022/05/09 06:45:23;;;;;;;9.55;5.70;;;;;;;;;;5013713;28;20451;-77
2022/05/09 06:47:50;;;;;;;11.27;5.88;;;;;;;;;;5017219;28;20467;-73
2022/05/09 06:50:17;;;;;;;9.23;5.15;;;;;;;;;;5016782;28;20030;-74
2022/05/09 06:52:43;;;;;;;7.65;4.90;;;;;;;;;;5017369;28;20492;-73
2022/05/09 06:55:10;;;;;;;9.57;5.40;;;;;;;;;;5018395;28;20022;-73
2022/05/09 06:57:41;;;;;;;9.27;5.30;;;;;;;;;;5014965;28;20455;-74
2022/05/09 07:00:08;;;;;;;9.13;5.95;;;;;;;;;;5022911;28;20021;-73
2022/05/09 07:02:34;;;;;;;7.05;5.15;;;;;;;;;;5018865;28;20037;-73
2022/05/09 07:05:03;;;;;;;9.23;5.70;;;;;;;;;;5016658;28;20062;-74
2022/05/09 07:07:29;;;;;;;12.55;6.53;;;;;;;;;;5010937;28;20038;-73
2022/05/09 07:09:55;;;;;;;7.53;5.40;;;;;;;;;;5006807;28;20041;-74
2022/05/09 07:12:21;;;;;;;9.43;5.40;;;;;;;;;;5007683;28;20046;-75
2022/05/09 07:14:47;;;;;;;9.57;5.35;;;;;;;;;;5007171;28;20076;-74
2022/05/09 07:17:13;;;;;;;9.60;5.63;;;;;;;;;;5001403;28;20093;-72
2022/05/09 07:19:39;;;;;;;12.88;5.93;;;;;;;;;;5003037;28;20041;-74
2022/05/09 07:22:05;;;;;;;9.15;5.72;;;;;;;;;;5004819;28;20025;-72
2022/05/09 07:24:31;;;;;;;7.88;5.43;;;;;;;;;;5010839;28;20030;-71
2022/05/09 07:26:58;;;;;;;9.65;4.97;;;;;;;;;;5006911;28;20120;-72
2022/05/09 07:29:24;;;;;;;9.60;5.00;;;;;;;;;;5010032;28;20025;-72
2022/05/09 07:31:50;;;;;;;6.07;5.00;;;;;;;;;;5002038;28;20030;-74
2022/05/09 07:34:16;;;;;;;7.55;4.60;;;;;;;;;;5006329;28;20034;-74
2022/05/09 07:36:42;;;;;;;6.70;5.00;;;;;;;;;;5002297;28;20041;-74
2022/05/09 07:39:08;;;;;;;7.68;5.10;;;;;;;;;;5007243;28;20052;-75
2022/05/09 07:41:35;;;;;;;7.18;4.80;;;;;;;;;;5001322;28;20037;-75
2022/05/09 07:44:01;;;;;;;9.93;5.25;;;;;;;;;;4997019;28;20045;-75
2022/05/09 07:46:27;;;;;;;7.50;4.63;;;;;;;;;;5001603;28;20034;-75
2022/05/09 07:48:53;;;;;;;7.50;5.40;;;;;;;;;;5009460;28;20033;-75
2022/05/09 07:51:19;;;;;;;9.95;5.20;;;;;;;;;;5008372;28;21629;-74
2022/05/09 07:53:46;;;;;;;7.10;4.30;;;;;;;;;;5005719;28;20036;-73
2022/05/09 07:56:12;;;;;;;10.95;5.35;;;;;;;;;;5011913;28;20084;-74
2022/05/09 07:58:39;;;;;;;6.43;4.85;;;;;;;;;;5009410;28;20026;-73
2022/05/09 08:01:05;;;;;;;7.25;4.68;;;;;;;;;;5003055;28;20025;-73
2022/05/09 08:03:34;;;;;;;6.38;4.80;;;;;;;;;;5002340;28;20139;-73
2022/05/09 08:06:00;;;;;;;9.02;4.88;;;;;;;;;;5001187;28;20602;-72
2022/05/09 08:08:28;;;;;;;7.75;4.85;;;;;;;;;;5005652;28;20639;-73
2022/05/09 08:10:56;;;;;;;10.55;5.22;;;;;;;;;;5006171;28;20021;-73
2022/05/09 08:13:22;;;;;;;6.15;3.97;;;;;;;;;;5004974;28;20145;-73
2022/05/09 08:15:48;;;;;;;9.85;4.78;;;;;;;;;;5008549;28;20022;-75
2022/05/09 08:18:15;;;;;;;6.22;4.95;;;;;;;;;;5007423;28;20775;-75
2022/05/09 08:20:45;;;;;;;7.43;5.38;;;;;;;;;;5007060;28;20488;-75
2022/05/09 08:23:12;;;;;;;6.38;5.07;;;;;;;;;;5008320;28;20405;-74
2022/05/09 08:25:39;;;;;;;7.55;5.35;;;;;;;;;;5005849;28;20039;-73
2022/05/09 08:28:07;;;;;;;7.70;5.43;;;;;;;;;;5004153;28;20555;-73
2022/05/09 08:30:34;;;;;;;8.00;5.05;;;;;;;;;;5010231;28;20044;-75
2022/05/09 08:33:01;;;;;;;15.82;6.78;;;;;;;;;;5010797;28;20030;-75
2022/05/09 08:35:27;;;;;;;8.45;4.68;;;;;;;;;;5007742;28;20049;-73
2022/05/09 08:37:54;;;;;;;7.05;4.70;;;;;;;;;;5002542;28;20111;-75
2022/05/09 08:40:24;;;;;;;7.97;5.80;;;;;;;;;;5006656;28;20116;-74
2022/05/09 08:42:56;;;;;;;8.68;5.38;;;;;;;;;;5004932;28;20057;-75
2022/05/09 08:45:22;;;;;;;6.18;5.22;;;;;;;;;;5001289;28;20054;-74
2022/05/09 08:48:01;;;;;;;7.30;5.22;;;;;;;;;;5008641;28;20290;-77
2022/05/09 08:50:33;;;;;;;8.02;5.57;;;;;;;;;;5004375;28;20037;-75
2022/05/09 08:53:04;;;;;;;6.45;4.43;;;;;;;;;;5005065;28;20034;-74
2022/05/09 08:55:35;;;;;;;8.80;4.95;;;;;;;;;;5008376;28;20111;-74
2022/05/09 08:58:11;;;;;;;8.25;4.82;;;;;;;;;;5018973;28;20030;-75
2022/05/09 09:00:38;;;;;;;8.55;5.30;;;;;;;;;;5006101;28;20136;-74
2022/05/09 09:03:16;;;;;;;7.75;4.85;;;;;;;;;;5006453;28;20035;-74
2022/05/09 09:05:45;;;;;;;6.93;4.90;;;;;;;;;;5002117;28;20456;-74
2022/05/09 09:08:13;;;;;;;9.40;4.63;;;;;;;;;;5005641;28;20618;-75
2022/05/09 09:10:54;;;;;;;5.68;4.50;;;;;;;;;;5003195;28;20029;-74
2022/05/09 09:13:36;;;;;;;6.68;4.85;;;;;;;;;;5001762;28;20417;-76
2022/05/09 09:16:17;;;;;;;9.85;4.53;;;;;;;;;;5005186;28;20038;-74
2022/05/09 09:19:13;;;;;;;5.45;4.20;;;;;;;;;;5000958;28;20067;-75
2022/05/09 09:21:42;;;;;;;5.57;4.82;;;;;;;;;;4950326;28;20097;-79
2022/05/09 09:24:23;;;;;;;8.90;6.03;;;;;;;;;;5007021;28;20068;-74
2022/05/09 09:26:59;;;;;;;8.15;4.28;;;;;;;;;;5025248;28;20895;-73
2022/05/09 09:29:34;;;;;;;12.23;4.63;;;;;;;;;;5005092;28;20520;-75
2022/05/09 09:32:06;;;;;;;6.07;4.13;;;;;;;;;;5002950;28;20049;-73
2022/05/09 09:34:35;;;;;;;8.07;4.10;;;;;;;;;;5004085;28;20034;-75
2022/05/09 09:37:07;;;;;;;5.05;4.07;;;;;;;;;;5004713;28;20053;-74
2022/05/09 09:39:33;;;;;;;7.70;3.95;;;;;;;;;;5002973;28;20041;-75
2022/05/09 09:41:59;;;;;;;8.77;4.18;;;;;;;;;;4999282;28;20034;-74
2022/05/09 09:44:26;;;;;;;6.45;4.88;;;;;;;;;;5002711;28;20492;-73
2022/05/09 09:47:13;;;;;;;5.75;4.60;;;;;;;;;;5004109;28;20042;-74
2022/05/09 09:49:40;;;;;;;5.38;4.18;;;;;;;;;;5003964;28;20133;-75
2022/05/09 09:52:29;;;;;;;5.03;3.92;;;;;;;;;;5002642;28;20037;-75
2022/05/09 09:55:06;;;;;;;8.63;4.30;;;;;;;;;;5001169;28;20113;-75
2022/05/09 09:57:37;;;;;;;7.50;3.55;;;;;;;;;;4996794;28;20548;-74
2022/05/09 10:00:20;;;;;;;4.57;3.53;;;;;;;;;;5002372;28;20038;-75
2022/05/09 10:02:47;;;;;;;5.30;3.63;;;;;;;;;;4995146;28;20034;-75
2022/05/09 10:05:15;;;;;;;6.00;4.05;;;;;;;;;;4995201;28;20045;-75
2022/05/09 10:07:44;;;;;;;6.70;4.30;;;;;;;;;;4995123;28;20030;-75
2022/05/09 10:10:23;;;;;;;6.78;4.47;;;;;;;;;;4997363;28;20040;-75
2022/05/09 10:12:51;;;;;;;5.90;4.05;;;;;;;;;;5008595;28;20022;-75
2022/05/09 10:15:34;;;;;;;4.93;3.47;;;;;;;;;;5004168;28;20136;-75
2022/05/09 10:18:15;;;;;;;6.13;4.30;;;;;;;;;;5006674;28;20408;-74
2022/05/09 10:20:41;;;;;;;6.40;4.43;;;;;;;;;;5007009;28;20033;-74
2022/05/09 10:26:21;;;;;;;5.25;4.25;;;;;;;;;;5006587;28;20092;-73
2022/05/09 10:28:50;;;;;;;8.23;5.07;;;;;;;;;;5001222;28;20037;-74
2022/05/09 10:31:21;;;;;;;5.13;4.13;;;;;;;;;;5002069;28;20455;-75
2022/05/09 10:34:04;;;;;;;7.97;4.75;;;;;;;;;;5004709;28;20033;-73
2022/05/09 10:36:42;;;;;;;5.45;4.45;;;;;;;;;;5004866;28;20385;-75
2022/05/09 10:39:12;;;;;;;6.70;4.88;;;;;;;;;;5004272;28;20033;-75
2022/05/09 10:41:38;;;;;;;5.43;4.00;;;;;;;;;;5003969;28;20056;-73
2022/05/09 10:44:28;;;;;;;4.90;3.90;;;;;;;;;;5005217;28;20026;-73
2022/05/09 10:46:58;;;;;;;5.50;4.00;;;;;;;;;;4998419;28;20123;-73
2022/05/09 10:49:31;;;;;;;8.30;4.60;;;;;;;;;;5003595;28;20015;-74
2022/05/09 10:52:08;;;;;;;6.78;4.53;;;;;;;;;;5006639;28;20475;-74
2022/05/09 10:54:38;;;;;;;6.55;4.60;;;;;;;;;;5022168;28;20030;-74
2022/05/09 10:57:04;;;;;;;8.07;4.70;;;;;;;;;;5005045;28;20038;-74
2022/05/09 10:59:31;;;;;;;6.13;4.18;;;;;;;;;;5010908;28;20585;-73
2022/05/09 11:02:00;;;;;;;8.25;4.35;;;;;;;;;;5006026;28;20967;-74
2022/05/09 11:04:31;;;;;;;5.60;3.65;;;;;;;;;;5004005;28;20026;-74
2022/05/09 11:06:57;;;;;;;6.07;4.13;;;;;;;;;;5004422;28;20551;-77
2022/05/09 11:09:23;;;;;;;5.43;4.10;;;;;;;;;;5003508;28;20034;-74
2022/05/09 11:12:01;;;;;;;6.53;4.05;;;;;;;;;;5002091;28;20033;-73
2022/05/09 11:14:34;;;;;;;5.15;4.18;;;;;;;;;;5000657;28;20037;-73
2022/05/09 11:17:08;;;;;;;5.60;3.40;;;;;;;;;;5001921;28;20169;-73
2022/05/09 11:19:43;;;;;;;10.50;4.53;;;;;;;;;;5003888;28;20022;-74
2022/05/09 11:22:12;;;;;;;4.40;3.67;;;;;;;;;;5003143;28;20087;-75
2022/05/09 11:24:41;;;;;;;6.50;4.13;;;;;;;;;;5001680;28;20045;-74
2022/05/09 11:27:27;;;;;;;8.27;4.82;;;;;;;;;;5002362;28;20445;-74
2022/05/09 11:29:59;;;;;;;6.78;4.25;;;;;;;;;;5000595;28;21249;-74
2022/05/09 11:32:34;;;;;;;6.03;3.97;;;;;;;;;;5001882;28;20033;-74
2022/05/09 11:35:00;;;;;;;;;;;;;;;;;;5001715;28;20052;-75
2022/05/09 11:37:45;;;;;;;7.95;4.13;;;;;;;;;;5002373;28;19921;-73
2022/05/09 11:40:17;;;;;;;5.50;3.75;;;;;;;;;;5015675;28;20029;-75
2022/05/09 11:45:46;;;;;;;4.57;3.60;;;;;;;;;;5000110;28;20088;-74
2022/05/09 11:48:38;;;;;;;6.63;3.67;;;;;;;;;;5001125;28;20117;-74
2022/05/09 11:51:22;;;;;;;4.63;3.50;;;;;;;;;;4995810;28;20492;-73
2022/05/09 11:53:55;;;;;;;9.23;4.18;;;;;;;;;;5015536;28;20045;-73
2022/05/09 11:56:22;;;;;;;5.47;3.67;;;;;;;;;;5000745;28;20416;-75
2022/05/09 11:58:48;;;;;;;5.30;3.80;;;;;;;;;;5018733;28;20037;-74
2022/05/09 12:01:14;;;;;;;7.25;3.97;;;;;;;;;;5010298;28;20029;-75
2022/05/09 12:03:40;;;;;;;6.05;3.47;;;;;;;;;;4999870;28;20025;-75
2022/05/09 12:06:14;;;;;;;6.03;3.50;;;;;;;;;;5000043;28;20030;-74
2022/05/09 12:08:42;;;;;;;6.93;3.53;;;;;;;;;;5000780;28;20122;-75
2022/05/09 12:11:24;;;;;;;4.85;3.65;;;;;;;;;;4996514;28;20350;-76
2022/05/09 12:13:59;;;;;;;6.70;4.60;;;;;;;;;;4999204;28;20169;-78
2022/05/09 12:16:36;;;;;;;5.35;3.78;;;;;;;;;;4996221;28;20081;-75
2022/05/09 12:19:13;;;;;;;5.72;4.25;;;;;;;;;;4995369;28;20480;-74
2022/05/09 12:21:41;;;;;;;7.25;3.55;;;;;;;;;;4987807;28;20080;-74
2022/05/09 12:24:19;;;;;;;3.97;3.13;;;;;;;;;;4997643;28;20045;-75
2022/05/09 12:26:47;;;;;;;4.85;4.18;;;;;;;;;;4994594;28;20027;-74
2022/05/09 12:29:15;;;;;;;8.57;4.80;;;;;;;;;;4998583;28;20372;-73
2022/05/09 12:31:49;;;;;;;8.50;3.30;;;;;;;;;;5001887;28;20022;-74
2022/05/09 12:34:16;;;;;;;6.47;3.88;;;;;;;;;;5006532;28;20121;-72
2022/05/09 12:36:44;;;;;;;10.80;4.80;;;;;;;;;;5002877;28;20026;-73
2022/05/09 12:39:17;;;;;;;4.82;3.55;;;;;;;;;;5001404;28;20052;-73
2022/05/09 12:41:52;;;;;;;6.88;3.13;;;;;;;;;;4993405;28;20026;-73
2022/05/09 12:44:20;;;;;;;5.35;3.80;;;;;;;;;;4997206;28;20108;-74
2022/05/09 12:46:57;;;;;;;4.32;3.53;;;;;;;;;;4993973;28;20654;-74
2022/05/09 12:49:33;;;;;;;6.47;4.00;;;;;;;;;;4989593;28;21459;-73
2022/05/09 12:51:59;;;;;;;5.75;3.60;;;;;;;;;;4993959;28;20038;-74
2022/05/09 12:54:27;;;;;;;6.47;3.67;;;;;;;;;;5002740;28;20030;-74
2022/05/09 12:57:00;;;;;;;4.18;3.28;;;;;;;;;;4999151;28;20057;-74
2022/05/09 12:59:27;;;;;;;10.40;3.78;;;;;;;;;;5003200;28;20061;-74
2022/05/09 13:01:56;;;;;;;3.92;3.42;;;;;;;;;;4999389;28;20412;-75
2022/05/09 13:04:28;;;;;;;6.55;3.75;;;;;;;;;;5004674;28;20064;-77
2022/05/09 13:06:56;;;;;;;4.10;3.13;;;;;;;;;;4998519;28;20030;-75
2022/05/09 13:09:24;;;;;;;6.03;3.85;;;;;;;;;;5000916;28;20590;-76
2022/05/09 13:11:54;;;;;;;6.30;3.90;;;;;;;;;;4998828;28;20437;-76
2022/05/09 13:14:25;;;;;;;5.35;3.58;;;;;;;;;;4999570;28;20030;-75
2022/05/09 13:16:53;;;;;;;7.05;5.40;;;;;;;;;;5000227;28;20038;-77
2022/05/09 13:19:20;;;;;;;4.18;3.78;;;;;;;;;;5018141;28;20026;-76
2022/05/09 13:21:48;;;;;;;8.50;4.93;;;;;;;;;;5004936;28;20089;-76
2022/05/09 13:24:17;;;;;;;4.20;2.95;;;;;;;;;;5001700;28;20049;-75
2022/05/09 13:26:46;;;;;;;4.65;3.03;;;;;;;;;;5002473;28;20038;-78
2022/05/09 13:29:21;;;;;;;4.72;4.25;;;;;;;;;;5019165;28;20768;-75
2022/05/09 13:31:48;;;;;;;7.07;3.53;;;;;;;;;;4999531;28;20109;-75
2022/05/09 13:34:41;;;;;;;3.58;2.85;;;;;;;;;;4995913;28;20474;-74
2022/05/09 13:37:10;;;;;;;5.72;2.75;;;;;;;;;;4992320;28;20511;-75
2022/05/09 13:39:38;;;;;;;8.57;3.40;;;;;;;;;;4997267;28;20031;-74
2022/05/09 13:42:08;;;;;;;4.43;2.95;;;;;;;;;;4998403;28;20034;-73
2022/05/09 13:44:34;;;;;;;4.63;3.10;;;;;;;;;;4998074;28;20547;-74
2022/05/09 13:47:00;;;;;;;5.30;2.75;;;;;;;;;;4995476;28;20477;-74
2022/05/09 13:49:29;;;;;;;4.95;2.67;;;;;;;;;;4999245;28;20068;-75
2022/05/09 13:52:08;;;;;;;3.67;3.22;;;;;;;;;;4999854;28;20040;-74
2022/05/09 13:54:40;;;;;;;5.90;4.20;;;;;;;;;;4997610;28;20021;-76
2022/05/09 13:57:11;;;;;;;4.78;2.78;;;;;;;;;;4997672;28;20018;-74
2022/05/09 13:59:38;;;;;;;3.85;2.92;;;;;;;;;;4994913;28;20030;-74
2022/05/09 14:02:05;;;;;;;4.55;2.90;;;;;;;;;;4997702;28;20481;-74
2022/05/09 14:04:31;;;;;;;5.25;3.20;;;;;;;;;;4996355;28;20056;-77
2022/05/09 14:07:37;;;;;;;6.15;3.45;;;;;;;;;;5017781;28;20124;-75
2022/05/09 14:09:45;;;;;;;3.53;2.40;;;;;;;;;;4996039;28;20034;-74
2022/05/09 14:12:16;;;;;;;3.95;2.63;;;;;;;;;;4997408;28;20034;-75
2022/05/09 14:14:44;;;;;;;6.85;2.80;;;;;;;;;;5001854;28;20094;-74
2022/05/09 14:17:20;;;;;;;5.38;2.60;;;;;;;;;;5001623;28;20042;-77
2022/05/09 14:19:50;;;;;;;4.22;3.03;;;;;;;;;;5003581;28;20030;-75
2022/05/09 14:22:16;;;;;;;3.85;2.20;;;;;;;;;;5003797;28;20045;-76
2022/05/09 14:30:14;;;;;;;5.60;2.55;;;;;;;;;;4999363;28;20036;-77
2022/05/09 14:32:40;;;;;;;3.70;2.50;;;;;;;;;;5000479;28;20121;-76
2022/05/09 14:35:06;;;;;;;4.03;2.60;;;;;;;;;;4996957;28;20453;-77
2022/05/09 14:37:33;;;;;;;5.80;2.50;;;;;;;;;;5000108;28;20029;-76
2022/05/09 14:40:02;;;;;;;5.25;2.83;;;;;;;;;;4997026;28;20104;-75
2022/05/09 14:42:32;;;;;;;4.68;2.50;;;;;;;;;;5003472;28;20117;-74
2022/05/09 14:45:07;;;;;;;4.20;2.60;;;;;;;;;;5009623;28;20525;-76
2022/05/09 14:47:40;;;;;;;2.97;2.40;;;;;;;;;;5009147;28;20041;-75
2022/05/09 14:50:13;;;;;;;3.22;2.40;;;;;;;;;;5011538;28;20670;-74
2022/05/09 14:52:42;;;;;;;4.43;2.70;;;;;;;;;;5014436;28;20050;-74
2022/05/09 14:58:17;;;;;;;5.15;2.88;;;;;;;;;;5019295;28;20057;-75
2022/05/09 15:00:49;;;;;;;6.70;2.70;;;;;;;;;;5015103;28;20149;-74
2022/05/09 15:03:18;;;;;;;4.15;2.60;;;;;;;;;;5014903;28;20403;-75
2022/05/09 15:05:45;;;;;;;6.55;3.15;;;;;;;;;;5015152;28;20031;-76
2022/05/09 15:08:12;;;;;;;6.15;3.10;;;;;;;;;;5012844;28;20034;-74
2022/05/09 15:10:41;;;;;;;2.42;2.22;;;;;;;;;;5005821;28;20208;-73
2022/05/09 15:13:08;;;;;;;3.75;2.65;;;;;;;;;;5012980;28;20507;-74